Time,TemperatureF,DewpointF,PressureIn,WindDirection,WindDirectionDegrees,WindSpeedMPH,WindSpeedGustMPH,Humidity,HourlyPrecipIn,Conditions,Clouds,dailyrainin,SoftwareType,DateUTC
2013-03-23 00:00:00,60.1,25.0,29.97,NNE,24,13.0,18.0,26,0.00,,,0.00,,2013-03-23 07:00:00,
2013-03-23 00:10:00,59.7,25.0,29.98,North,5,10.0,15.0,26,0.00,,,0.00,,2013-03-23 07:10:00,
2013-03-23 00:20:00,59.8,23.0,29.98,NNE,22,12.0,16.0,24,0.00,,,0.00,,2013-03-23 07:20:00,
2013-03-23 00:30:00,59.4,23.0,29.98,North,360,6.0,15.0,24,0.00,,,0.00,,2013-03-23 07:30:00,
2013-03-23 00:40:00,58.6,22.0,29.98,NE,38,10.0,18.0,24,0.00,,,0.00,,2013-03-23 07:40:00,
2013-03-23 00:50:00,59.1,20.0,29.97,NNE,26,8.0,14.0,22,0.00,,,0.00,,2013-03-23 07:50:00,
2013-03-23 01:00:00,59.0,21.0,29.97,NE,36,8.0,10.0,23,0.00,,,0.00,,2013-03-23 08:00:00,
2013-03-23 01:10:00,58.4,21.0,29.98,NNW,331,7.0,8.0,23,0.00,,,0.00,,2013-03-23 08:10:00,
2013-03-23 01:20:00,58.7,19.0,29.98,NNE,24,2.0,9.0,21,0.00,,,0.00,,2013-03-23 08:20:00,
2013-03-23 01:30:00,58.6,21.0,29.98,NE,40,0.0,5.0,23,0.00,,,0.00,,2013-03-23 08:30:00,
2013-03-23 01:40:00,58.0,21.0,29.98,NE,34,4.0,7.0,24,0.00,,,0.00,,2013-03-23 08:40:00,
2013-03-23 01:50:00,57.0,21.0,29.98,ESE,117,5.0,7.0,25,0.00,,,0.00,,2013-03-23 08:50:00,
2013-03-23 02:00:00,57.1,21.0,29.98,East,79,9.0,10.0,24,0.00,,,0.00,,2013-03-23 09:00:00,
2013-03-23 02:10:00,58.1,20.0,29.98,ENE,63,9.0,13.0,23,0.00,,,0.00,,2013-03-23 09:10:00,
2013-03-23 02:20:00,58.7,21.0,29.98,ENE,73,9.0,11.0,23,0.00,,,0.00,,2013-03-23 09:20:00,
2013-03-23 02:30:00,58.4,22.0,29.99,East,85,8.0,14.0,24,0.00,,,0.00,,2013-03-23 09:30:00,
2013-03-23 02:40:00,57.9,23.0,29.98,ENE,67,9.0,15.0,26,0.00,,,0.00,,2013-03-23 09:40:00,
2013-03-23 02:50:00,57.1,23.0,29.98,ENE,68,7.0,13.0,27,0.00,,,0.00,,2013-03-23 09:50:00,
2013-03-23 03:00:00,57.1,23.0,29.98,NE,52,6.0,13.0,26,0.00,,,0.00,,2013-03-23 10:00:00,
2013-03-23 03:10:00,56.9,22.0,29.97,ENE,72,5.0,11.0,26,0.00,,,0.00,,2013-03-23 10:10:00,
2013-03-23 03:20:00,56.9,21.0,29.97,ENE,71,4.0,9.0,25,0.00,,,0.00,,2013-03-23 10:20:00,
2013-03-23 03:30:00,57.3,19.0,29.97,NNE,21,2.0,7.0,22,0.00,,,0.00,,2013-03-23 10:30:00,
2013-03-23 03:40:00,57.9,20.0,29.96,NNE,32,3.0,5.0,23,0.00,,,0.00,,2013-03-23 10:40:00,
2013-03-23 03:50:00,57.2,21.0,29.96,NNE,32,0.0,3.0,24,0.00,,,0.00,,2013-03-23 10:50:00,
2013-03-23 04:00:00,56.7,20.0,29.97,NNE,32,1.0,2.0,24,0.00,,,0.00,,2013-03-23 11:00:00,
2013-03-23 04:10:00,56.3,20.0,29.96,SW,225,3.0,5.0,24,0.00,,,0.00,,2013-03-23 11:10:00,
2013-03-23 04:20:00,55.8,21.0,29.96,WSW,242,2.0,5.0,26,0.00,,,0.00,,2013-03-23 11:20:00,
2013-03-23 04:30:00,55.7,20.0,29.97,NW,316,4.0,4.0,25,0.00,,,0.00,,2013-03-23 11:30:00,
2013-03-23 04:40:00,56.3,19.0,29.97,NW,318,3.0,4.0,23,0.00,,,0.00,,2013-03-23 11:40:00,
2013-03-23 04:50:00,56.6,20.0,29.97,NW,318,0.0,4.0,24,0.00,,,0.00,,2013-03-23 11:50:00,
2013-03-23 05:00:00,55.8,20.0,29.97,NE,38,6.0,6.0,25,0.00,,,0.00,,2013-03-23 12:00:00,
2013-03-23 05:10:00,54.8,23.0,29.97,South,171,3.0,5.0,29,0.00,,,0.00,,2013-03-23 12:10:00,
2013-03-23 05:20:00,53.3,26.0,29.98,SE,145,2.0,5.0,34,0.00,,,0.00,,2013-03-23 12:20:00,
2013-03-23 05:30:00,53.6,27.0,29.98,SSW,196,2.0,4.0,35,0.00,,,0.00,,2013-03-23 12:30:00,
2013-03-23 05:40:00,53.0,28.0,29.98,SSE,153,0.0,4.0,38,0.00,,,0.00,,2013-03-23 12:40:00,
2013-03-23 05:50:00,52.4,33.0,29.98,South,172,1.0,5.0,47,0.00,,,0.00,,2013-03-23 12:50:00,
2013-03-23 06:00:00,52.6,31.0,29.99,South,172,0.0,0.0,44,0.00,,,0.00,,2013-03-23 13:00:00,
2013-03-23 06:10:00,53.0,29.0,29.99,South,172,0.0,4.0,40,0.00,,,0.00,,2013-03-23 13:10:00,
2013-03-23 06:20:00,53.8,25.0,29.99,South,172,0.0,1.0,33,0.00,,,0.00,,2013-03-23 13:20:00,
2013-03-23 06:30:00,53.7,29.0,30.00,ENE,59,0.0,4.0,38,0.00,,,0.00,,2013-03-23 13:30:00,
2013-03-23 06:40:00,54.1,24.0,29.99,ENE,59,3.0,3.0,31,0.00,,,0.00,,2013-03-23 13:40:00,
2013-03-23 06:50:00,52.6,26.0,30.00,ENE,59,0.0,4.0,35,0.00,,,0.00,,2013-03-23 13:50:00,
2013-03-23 07:00:00,52.7,28.0,30.00,ENE,59,0.0,3.0,38,0.00,,,0.00,,2013-03-23 14:00:00,
2013-03-23 07:10:00,53.1,27.0,30.00,ENE,59,1.0,1.0,37,0.00,,,0.00,,2013-03-23 14:10:00,
2013-03-23 07:20:00,53.3,26.0,30.00,SE,141,0.0,5.0,34,0.00,,,0.00,,2013-03-23 14:20:00,
2013-03-23 07:30:00,53.3,24.0,30.01,SE,141,0.0,3.0,32,0.00,,,0.00,,2013-03-23 14:30:00,
2013-03-23 07:40:00,53.7,24.0,30.01,SE,141,4.0,5.0,31,0.00,,,0.00,,2013-03-23 14:40:00,
2013-03-23 07:50:00,52.9,34.0,30.01,SSE,150,0.0,6.0,48,0.00,,,0.00,,2013-03-23 14:50:00,
2013-03-23 08:00:00,53.0,30.0,30.01,SE,143,6.0,6.0,41,0.00,,,0.00,,2013-03-23 15:00:00,
2013-03-23 08:10:00,53.5,27.0,30.01,SE,136,7.0,8.0,36,0.00,,,0.00,,2013-03-23 15:10:00,
2013-03-23 08:20:00,53.1,26.0,30.01,SE,139,3.0,9.0,35,0.00,,,0.00,,2013-03-23 15:20:00,
2013-03-23 08:30:00,54.1,28.0,30.01,SE,142,3.0,8.0,36,0.00,,,0.00,,2013-03-23 15:30:00,
2013-03-23 08:40:00,55.9,29.0,30.02,SE,124,3.0,5.0,35,0.00,,,0.00,,2013-03-23 15:40:00,
2013-03-23 08:50:00,57.1,25.0,30.02,SE,126,0.0,3.0,29,0.00,,,0.00,,2013-03-23 15:50:00,
2013-03-23 09:00:00,58.6,32.0,30.03,SE,126,1.0,2.0,36,0.00,,,0.00,,2013-03-23 16:00:00,
2013-03-23 09:10:00,57.5,29.0,30.02,South,185,0.0,4.0,34,0.00,,,0.00,,2013-03-23 16:10:00,
2013-03-23 09:20:00,58.3,33.0,30.03,NW,319,0.0,4.0,39,0.00,,,0.00,,2013-03-23 16:20:00,
2013-03-23 09:30:00,58.5,37.0,30.04,NNE,33,0.0,3.0,45,0.00,,,0.00,,2013-03-23 16:30:00,
2013-03-23 09:40:00,59.7,39.0,30.04,NNE,33,0.0,0.0,46,0.00,,,0.00,,2013-03-23 16:40:00,
2013-03-23 09:50:00,60.3,38.0,30.04,NNE,33,1.0,2.0,44,0.00,,,0.00,,2013-03-23 16:50:00,
2013-03-23 10:00:00,60.6,37.0,30.04,NNE,33,0.0,1.0,41,0.00,,,0.00,,2013-03-23 17:00:00,
2013-03-23 10:10:00,61.4,39.0,30.04,NE,49,1.0,4.0,44,0.00,,,0.00,,2013-03-23 17:10:00,
2013-03-23 10:20:00,61.7,38.0,30.04,South,184,3.0,6.0,42,0.00,,,0.00,,2013-03-23 17:20:00,
2013-03-23 10:30:00,61.5,27.0,30.04,ESE,121,0.0,6.0,27,0.00,,,0.00,,2013-03-23 17:30:00,
2013-03-23 10:40:00,62.6,36.0,30.03,South,175,2.0,3.0,37,0.00,,,0.00,,2013-03-23 17:40:00,
2013-03-23 10:50:00,63.7,34.0,30.03,ENE,78,0.0,6.0,33,0.00,,,0.00,,2013-03-23 17:50:00,
2013-03-23 11:00:00,64.3,31.0,30.03,ESE,117,2.0,7.0,29,0.00,,,0.00,,2013-03-23 18:00:00,
2013-03-23 11:10:00,65.0,33.0,30.03,East,85,5.0,7.0,30,0.00,,,0.00,,2013-03-23 18:10:00,
2013-03-23 11:20:00,65.4,31.0,30.02,ENE,61,5.0,9.0,28,0.00,,,0.00,,2013-03-23 18:20:00,
2013-03-23 11:30:00,66.0,31.0,30.02,NE,55,7.0,11.0,27,0.00,,,0.00,,2013-03-23 18:30:00,
2013-03-23 11:40:00,66.2,33.0,30.02,ENE,57,5.0,11.0,29,0.00,,,0.00,,2013-03-23 18:40:00,
2013-03-23 11:50:00,66.2,30.0,30.02,NE,52,7.0,11.0,26,0.00,,,0.00,,2013-03-23 18:50:00,
2013-03-23 12:00:00,66.6,34.0,30.01,ENE,65,2.0,9.0,30,0.00,,,0.00,,2013-03-23 19:00:00,
2013-03-23 12:10:00,67.1,30.0,30.01,ENE,75,4.0,9.0,25,0.00,,,0.00,,2013-03-23 19:10:00,
2013-03-23 12:20:00,67.1,30.0,30.01,NE,36,7.0,11.0,25,0.00,,,0.00,,2013-03-23 19:20:00,
2013-03-23 12:30:00,68.0,36.0,30.01,West,270,6.0,9.0,31,0.00,,,0.00,,2013-03-23 19:30:00,
2013-03-23 12:40:00,66.3,38.0,30.02,West,276,9.0,12.0,35,0.00,,,0.00,,2013-03-23 19:40:00,
2013-03-23 12:50:00,63.2,39.0,30.01,West,263,8.0,13.0,41,0.00,,,0.00,,2013-03-23 19:50:00,
2013-03-23 13:00:00,61.6,38.0,30.01,West,260,9.0,13.0,42,0.00,,,0.00,,2013-03-23 20:00:00,
2013-03-23 13:10:00,62.2,38.0,30.01,NW,310,6.0,11.0,41,0.00,,,0.00,,2013-03-23 20:10:00,
2013-03-23 13:20:00,62.3,40.0,30.00,WNW,286,10.0,13.0,44,0.00,,,0.00,,2013-03-23 20:20:00,
2013-03-23 13:30:00,61.4,39.0,30.00,WNW,293,9.0,15.0,44,0.00,,,0.00,,2013-03-23 20:30:00,
2013-03-23 13:40:00,61.6,41.0,30.00,NW,315,7.0,13.0,46,0.00,,,0.00,,2013-03-23 20:40:00,
2013-03-23 13:50:00,62.7,38.0,30.00,WNW,302,7.0,13.0,40,0.00,,,0.00,,2013-03-23 20:50:00,
2013-03-23 14:00:00,62.6,37.0,29.99,NW,311,8.0,13.0,39,0.00,,,0.00,,2013-03-23 21:00:00,
2013-03-23 14:10:00,63.4,36.0,29.99,NW,316,9.0,13.0,36,0.00,,,0.00,,2013-03-23 21:10:00,
2013-03-23 14:20:00,63.8,33.0,29.99,NW,325,5.0,14.0,32,0.00,,,0.00,,2013-03-23 21:20:00,
2013-03-23 14:30:00,64.8,33.0,29.98,WNW,302,7.0,11.0,30,0.00,,,0.00,,2013-03-23 21:30:00,
2013-03-23 14:40:00,65.3,27.0,29.98,NW,310,12.0,15.0,23,0.00,,,0.00,,2013-03-23 21:40:00,
2013-03-23 14:50:00,64.4,26.0,29.98,NW,311,11.0,18.0,23,0.00,,,0.00,,2013-03-23 21:50:00,
2013-03-23 15:00:00,64.7,27.0,29.97,WNW,302,11.0,18.0,24,0.00,,,0.00,,2013-03-23 22:00:00,
2013-03-23 15:10:00,63.9,28.0,29.97,WNW,291,8.0,16.0,26,0.00,,,0.00,,2013-03-23 22:10:00,
2013-03-23 15:20:00,63.8,28.0,29.96,NW,315,9.0,18.0,26,0.00,,,0.00,,2013-03-23 22:20:00,
2013-03-23 15:30:00,63.6,26.0,29.96,NW,317,10.0,17.0,24,0.00,,,0.00,,2013-03-23 22:30:00,
2013-03-23 15:40:00,62.9,33.0,29.96,NW,309,7.0,15.0,32,0.00,,,0.00,,2013-03-23 22:40:00,
2013-03-23 15:50:00,61.5,34.0,29.96,NW,319,9.0,14.0,35,0.00,,,0.00,,2013-03-23 22:50:00,
2013-03-23 16:00:00,61.3,33.0,29.95,North,355,10.0,13.0,34,0.00,,,0.00,,2013-03-23 23:00:00,
2013-03-23 16:10:00,61.2,33.0,29.95,NW,326,5.0,9.0,35,0.00,,,0.00,,2013-03-23 23:10:00,
2013-03-23 16:20:00,61.1,33.0,29.95,NNW,327,8.0,9.0,34,0.00,,,0.00,,2013-03-23 23:20:00,
2013-03-23 16:30:00,61.0,30.0,29.95,NNW,327,9.0,15.0,31,0.00,,,0.00,,2013-03-23 23:30:00,
2013-03-23 16:40:00,60.8,27.0,29.95,NW,305,12.0,17.0,27,0.00,,,0.00,,2013-03-23 23:40:00,
2013-03-23 16:50:00,57.5,36.0,29.95,NW,311,15.0,18.0,44,0.00,,,0.00,,2013-03-23 23:50:00,
2013-03-23 17:00:00,56.5,38.0,29.96,WNW,296,11.0,18.0,50,0.00,,,0.00,,2013-03-24 00:00:00,
2013-03-23 17:10:00,57.4,40.0,29.95,NNW,333,9.0,13.0,53,0.00,,,0.00,,2013-03-24 00:10:00,
2013-03-23 17:20:00,57.6,40.0,29.95,NNW,342,12.0,13.0,52,0.00,,,0.00,,2013-03-24 00:20:00,
2013-03-23 17:30:00,57.4,37.0,29.95,NNW,328,8.0,13.0,47,0.00,,,0.00,,2013-03-24 00:30:00,
2013-03-23 17:40:00,57.6,38.0,29.95,NW,319,10.0,12.0,48,0.00,,,0.00,,2013-03-24 00:40:00,
2013-03-23 17:50:00,58.1,41.0,29.95,NNW,339,7.0,11.0,52,0.00,,,0.00,,2013-03-24 00:50:00,
2013-03-23 18:00:00,57.8,44.0,29.95,NW,308,8.0,9.0,59,0.00,,,0.00,,2013-03-24 01:00:00,
2013-03-23 18:10:00,55.6,44.0,29.95,NW,322,8.0,10.0,66,0.00,,,0.00,,2013-03-24 01:10:00,
2013-03-23 18:20:00,54.0,44.0,29.95,NNW,327,8.0,10.0,70,0.00,,,0.00,,2013-03-24 01:20:00,
2013-03-23 18:30:00,53.3,45.0,29.95,NW,326,7.0,9.0,74,0.00,,,0.00,,2013-03-24 01:30:00,
2013-03-23 18:40:00,53.0,44.0,29.95,NW,316,11.0,13.0,72,0.00,,,0.00,,2013-03-24 01:40:00,
2013-03-23 18:50:00,52.1,45.0,29.95,NNW,333,10.0,16.0,77,0.00,,,0.00,,2013-03-24 01:50:00,
2013-03-23 19:00:00,51.9,45.0,29.95,WNW,302,10.0,15.0,78,0.00,,,0.00,,2013-03-24 02:00:00,
2013-03-23 19:10:00,51.1,45.0,29.96,NW,324,12.0,13.0,80,0.00,,,0.00,,2013-03-24 02:10:00,
2013-03-23 19:20:00,50.6,45.0,29.96,NW,325,9.0,12.0,82,0.00,,,0.00,,2013-03-24 02:20:00,
2013-03-23 19:30:00,50.2,45.0,29.96,North,355,8.0,12.0,83,0.00,,,0.00,,2013-03-24 02:30:00,
2013-03-23 19:40:00,49.9,45.0,29.97,North,355,4.0,9.0,84,0.00,,,0.00,,2013-03-24 02:40:00,
2013-03-23 19:50:00,49.5,45.0,29.97,NW,322,6.0,8.0,86,0.00,,,0.00,,2013-03-24 02:50:00,
2013-03-23 20:00:00,49.5,45.0,29.97,WNW,286,3.0,6.0,86,0.00,,,0.00,,2013-03-24 03:00:00,
2013-03-23 20:10:00,50.0,45.0,29.98,ENE,63,2.0,5.0,84,0.00,,,0.00,,2013-03-24 03:10:00,
2013-03-23 20:20:00,50.3,45.0,29.98,ENE,63,2.0,3.0,83,0.00,,,0.00,,2013-03-24 03:20:00,
2013-03-23 20:30:00,50.5,46.0,29.98,ENE,63,3.0,4.0,83,0.00,,,0.00,,2013-03-24 03:30:00,
2013-03-23 20:40:00,49.9,46.0,29.98,ENE,63,1.0,3.0,85,0.00,,,0.00,,2013-03-24 03:40:00,
2013-03-23 20:50:00,49.8,45.0,29.99,ENE,63,0.0,2.0,85,0.00,,,0.00,,2013-03-24 03:50:00,
2013-03-23 21:00:00,49.7,45.0,29.99,ENE,63,0.0,0.0,84,0.00,,,0.00,,2013-03-24 04:00:00,
2013-03-23 21:10:00,49.8,45.0,29.99,ENE,63,1.0,1.0,84,0.00,,,0.00,,2013-03-24 04:10:00,
2013-03-23 21:20:00,49.6,45.0,29.99,ENE,63,1.0,3.0,85,0.00,,,0.00,,2013-03-24 04:20:00,
2013-03-23 21:30:00,49.9,45.0,30.00,South,190,2.0,6.0,83,0.00,,,0.00,,2013-03-24 04:30:00,
2013-03-23 21:40:00,49.8,45.0,30.00,SSW,196,6.0,9.0,82,0.00,,,0.00,,2013-03-24 04:40:00,
2013-03-23 21:50:00,49.9,45.0,30.00,SSW,209,7.0,9.0,83,0.00,,,0.00,,2013-03-24 04:50:00,
2013-03-23 22:00:00,49.4,45.0,30.01,SSW,202,3.0,9.0,84,0.00,,,0.00,,2013-03-24 05:00:00,
2013-03-23 22:10:00,49.4,45.0,30.01,SSW,202,0.0,4.0,84,0.00,,,0.00,,2013-03-24 05:10:00,
2013-03-23 22:20:00,48.9,45.0,30.01,SSW,202,1.0,2.0,85,0.00,,,0.00,,2013-03-24 05:20:00,
2013-03-23 22:30:00,49.1,45.0,30.01,SSW,202,1.0,2.0,85,0.00,,,0.00,,2013-03-24 05:30:00,
2013-03-23 22:40:00,48.8,45.0,30.01,ESE,115,0.0,2.0,86,0.00,,,0.00,,2013-03-24 05:40:00,
2013-03-23 22:50:00,48.8,45.0,30.01,ESE,115,2.0,2.0,87,0.00,,,0.00,,2013-03-24 05:50:00,
2013-03-23 23:00:00,48.6,45.0,30.01,ESE,105,2.0,3.0,87,0.00,,,0.00,,2013-03-24 06:00:00,
2013-03-23 23:10:00,48.4,45.0,30.01,ESE,105,0.0,3.0,88,0.00,,,0.00,,2013-03-24 06:10:00,
2013-03-23 23:20:00,48.2,45.0,30.01,ESE,105,0.0,1.0,89,0.00,,,0.00,,2013-03-24 06:20:00,
2013-03-23 23:30:00,48.0,45.0,30.01,ESE,106,0.0,1.0,89,0.00,,,0.00,,2013-03-24 06:30:00,
2013-03-23 23:40:00,48.1,45.0,30.01,ESE,107,2.0,2.0,90,0.00,,,0.00,,2013-03-24 06:40:00,
2013-03-23 23:50:00,48.4,45.0,30.00,ESE,107,0.0,2.0,89,0.00,,,0.00,,2013-03-24 06:50:00,